createdAt,value
2018-02-22T00:00:54.780Z,99257.53
2018-02-22T00:03:23.085Z,99234.58
2018-02-22T00:05:51.364Z,99255.53
2018-02-22T00:08:20.611Z,99248.00
2018-02-22T00:10:48.888Z,99263.45
2018-02-22T00:13:17.150Z,99240.56
2018-02-22T00:15:45.451Z,99259.92
2018-02-22T00:18:13.768Z,99251.92
2018-02-22T00:20:42.096Z,99253.20
2018-02-22T00:23:10.414Z,99252.91
2018-02-22T00:25:38.706Z,99256.80
2018-02-22T00:28:07.019Z,99249.58
2018-02-22T00:30:35.280Z,99244.38
2018-02-22T00:33:03.592Z,99254.67
2018-02-22T00:35:31.883Z,99248.67
2018-02-22T00:38:00.199Z,99246.66
2018-02-22T00:40:28.492Z,99240.45
2018-02-22T00:42:56.746Z,99238.04
2018-02-22T00:45:25.074Z,99237.70
2018-02-22T00:47:53.388Z,99240.91
2018-02-22T00:50:21.683Z,99229.44
2018-02-22T00:52:49.948Z,99231.31
2018-02-22T00:55:18.240Z,99224.83
2018-02-22T00:57:46.511Z,99227.05
2018-02-22T01:00:14.809Z,99228.23
2018-02-22T01:02:43.079Z,99216.00
2018-02-22T01:05:11.426Z,99221.52
2018-02-22T01:07:39.680Z,99223.92
2018-02-22T01:10:07.992Z,99215.13
2018-02-22T01:12:36.261Z,99215.49
2018-02-22T01:15:04.597Z,99216.70
2018-02-22T01:17:32.831Z,99223.02
2018-02-22T01:20:01.099Z,99221.73
2018-02-22T01:22:29.395Z,99224.77
2018-02-22T01:24:57.687Z,99223.47
2018-02-22T01:27:25.988Z,99220.12
2018-02-22T01:29:54.287Z,99228.37
2018-02-22T01:32:22.559Z,99226.80
2018-02-22T01:34:50.831Z,99225.76
2018-02-22T01:37:19.126Z,99227.06
2018-02-22T01:39:47.389Z,99223.68
2018-02-22T01:42:15.687Z,99223.39
2018-02-22T01:44:43.990Z,99218.72
2018-02-22T01:47:12.264Z,99218.01
2018-02-22T01:49:40.563Z,99213.12
2018-02-22T01:52:08.830Z,99216.74
2018-02-22T01:54:37.143Z,99210.65
2018-02-22T01:57:05.394Z,99209.67
2018-02-22T01:59:33.741Z,99203.48
2018-02-22T02:02:01.989Z,99208.52
2018-02-22T02:04:30.311Z,99184.52
2018-02-22T02:06:58.616Z,99201.31
2018-02-22T02:09:26.901Z,99199.09
2018-02-22T02:11:55.208Z,99199.61
2018-02-22T02:14:23.488Z,99201.95
2018-02-22T02:16:51.795Z,99197.65
2018-02-22T02:19:20.068Z,99196.41
2018-02-22T02:21:48.395Z,99192.91
2018-02-22T02:24:16.667Z,99192.94
2018-02-22T02:26:44.956Z,99190.63
2018-02-22T02:29:13.230Z,99184.70
2018-02-22T02:31:41.912Z,99170.20
2018-02-22T02:34:10.229Z,99171.71
2018-02-22T02:36:38.494Z,99175.98
2018-02-22T02:39:06.819Z,99167.93
2018-02-22T02:41:35.103Z,99178.52
2018-02-22T02:44:03.396Z,99169.45
2018-02-22T02:46:31.674Z,99169.72
2018-02-22T02:48:59.978Z,99166.62
2018-02-22T02:51:28.256Z,99170.80
2018-02-22T02:53:56.545Z,99165.48
2018-02-22T02:56:24.839Z,99153.47
2018-02-22T02:58:53.142Z,99169.45
2018-02-22T03:01:21.427Z,99160.09
2018-02-22T03:03:49.717Z,99161.28
2018-02-22T03:06:17.991Z,99158.73
2018-02-22T03:08:46.263Z,99150.92
2018-02-22T03:11:14.551Z,99146.73
2018-02-22T03:13:43.140Z,99149.64
2018-02-22T03:16:11.462Z,99151.98
2018-02-22T03:18:39.714Z,99145.81
2018-02-22T03:21:08.048Z,99153.95
2018-02-22T03:23:36.332Z,99150.50
2018-02-22T03:26:04.951Z,99133.73
2018-02-22T03:28:33.280Z,99139.41
2018-02-22T03:31:01.554Z,99142.07
2018-02-22T03:33:29.844Z,99143.46
2018-02-22T03:35:58.123Z,99139.73
2018-02-22T03:38:26.436Z,99139.65
2018-02-22T03:40:54.714Z,99133.04
2018-02-22T03:43:23.039Z,99141.76
2018-02-22T03:45:51.321Z,99134.08
2018-02-22T03:48:19.635Z,99136.17
2018-02-22T03:50:47.910Z,99135.70
2018-02-22T03:53:16.222Z,99133.98
2018-02-22T03:55:44.503Z,99136.88
2018-02-22T03:58:12.886Z,99127.79
2018-02-22T04:00:41.149Z,99131.52
2018-02-22T04:03:09.412Z,99121.60
2018-02-22T04:05:37.739Z,99131.84
2018-02-22T04:08:06.001Z,99129.20
2018-02-22T04:10:34.299Z,99123.44
2018-02-22T04:13:02.616Z,99129.91
2018-02-22T04:15:30.901Z,99130.66
2018-02-22T04:17:59.199Z,99133.44
2018-02-22T04:20:27.471Z,99137.34
2018-02-22T04:22:55.793Z,99143.06
2018-02-22T04:25:24.094Z,99145.10
2018-02-22T04:27:52.417Z,99140.23
2018-02-22T04:30:20.796Z,99140.80
2018-02-22T04:32:49.081Z,99134.63
2018-02-22T04:35:17.379Z,99147.41
2018-02-22T04:37:45.667Z,99147.09
2018-02-22T04:40:13.947Z,99118.51
2018-02-22T04:42:42.295Z,99154.40
2018-02-22T04:45:10.597Z,99150.61
2018-02-22T04:47:38.840Z,99153.22
2018-02-22T04:50:07.152Z,99153.51
2018-02-22T04:52:35.404Z,99151.11
2018-02-22T04:55:04.627Z,99155.27
2018-02-22T04:57:32.901Z,99152.04
2018-02-22T05:00:01.222Z,99143.89
2018-02-22T05:02:30.419Z,99147.85
2018-02-22T05:04:58.717Z,99144.12
2018-02-22T05:07:26.997Z,99147.48
2018-02-22T05:09:55.291Z,99143.87
2018-02-22T05:12:23.581Z,99141.59
2018-02-22T05:14:51.871Z,99142.73
2018-02-22T05:17:20.164Z,99135.44
2018-02-22T05:19:48.475Z,99139.82
2018-02-22T05:22:16.763Z,99142.05
2018-02-22T05:24:45.033Z,99138.67
2018-02-22T05:27:13.347Z,99133.21
2018-02-22T05:29:41.632Z,99139.68
2018-02-22T05:32:10.126Z,99129.41
2018-02-22T05:34:38.405Z,99131.42
2018-02-22T05:37:06.681Z,99131.22
2018-02-22T05:39:34.967Z,99128.64
2018-02-22T05:42:03.238Z,99127.98
2018-02-22T05:44:31.544Z,99133.20
2018-02-22T05:46:59.816Z,99135.67
2018-02-22T05:49:28.121Z,99133.09
2018-02-22T05:51:56.399Z,99127.83
2018-02-22T05:54:24.711Z,99129.23
2018-02-22T05:56:53.004Z,99132.89
2018-02-22T05:59:21.593Z,99131.42
2018-02-22T06:01:49.851Z,99136.75
2018-02-22T06:04:18.135Z,99129.77
2018-02-22T06:06:46.543Z,99132.55
2018-02-22T06:09:14.810Z,99133.36
2018-02-22T06:11:43.097Z,99127.98
2018-02-22T06:14:11.400Z,99128.86
2018-02-22T06:16:39.651Z,99135.44
2018-02-22T06:19:07.913Z,99123.67
2018-02-22T06:21:36.237Z,99130.32
2018-02-22T06:24:05.096Z,99135.31
2018-02-22T06:26:33.389Z,99135.52
2018-02-22T06:29:01.656Z,99144.30
2018-02-22T06:31:29.927Z,99143.44
2018-02-22T06:33:58.224Z,99138.78
2018-02-22T06:36:26.514Z,99145.19
2018-02-22T06:38:54.829Z,99146.33
2018-02-22T06:41:23.100Z,99149.38
2018-02-22T06:43:51.442Z,99138.38
2018-02-22T06:46:19.687Z,99148.08
2018-02-22T06:48:47.994Z,99146.37
2018-02-22T06:51:16.296Z,99146.28
2018-02-22T06:53:44.573Z,99143.12
2018-02-22T06:56:13.083Z,99141.91
2018-02-22T06:58:41.357Z,99144.05
2018-02-22T07:01:10.569Z,99141.41
2018-02-22T07:03:38.816Z,99141.94
2018-02-22T07:06:07.119Z,99139.67
2018-02-22T07:08:35.409Z,99121.62
2018-02-22T07:11:04.347Z,99148.32
2018-02-22T07:13:32.606Z,99145.35
2018-02-22T07:16:00.923Z,99150.42
2018-02-22T07:18:29.212Z,99149.57
2018-02-22T07:20:57.463Z,99150.05
2018-02-22T07:23:27.078Z,99151.34
2018-02-22T07:25:55.382Z,99144.50
2018-02-22T07:28:23.693Z,99155.81
2018-02-22T07:30:51.971Z,99154.23
2018-02-22T07:33:20.303Z,99163.70
2018-02-22T07:35:49.414Z,99162.91
2018-02-22T07:38:17.675Z,99162.06
2018-02-22T07:40:45.977Z,99176.48
2018-02-22T07:43:14.268Z,99175.15
2018-02-22T07:45:42.579Z,99174.39
2018-02-22T07:48:10.874Z,99168.94
2018-02-22T07:50:39.136Z,99175.03
2018-02-22T07:53:07.497Z,99175.23
2018-02-22T07:55:35.782Z,99164.31
2018-02-22T07:58:05.004Z,99148.80
2018-02-22T08:00:33.257Z,99155.95
2018-02-22T08:03:01.546Z,99165.05
2018-02-22T08:05:29.821Z,99174.66
2018-02-22T08:07:58.166Z,99162.85
2018-02-22T08:10:26.421Z,99158.63
2018-02-22T08:12:54.730Z,99159.09
2018-02-22T08:15:23.358Z,99157.20
2018-02-22T08:17:51.672Z,99156.77
2018-02-22T08:20:19.998Z,99150.36
2018-02-22T08:22:48.308Z,99169.56
2018-02-22T08:25:16.672Z,99160.59
2018-02-22T08:27:45.003Z,99171.84
2018-02-22T08:30:13.335Z,99169.95
2018-02-22T08:32:41.581Z,99115.63
2018-02-22T08:35:09.848Z,99175.26
2018-02-22T08:37:38.160Z,99175.47
2018-02-22T08:40:06.528Z,99190.28
2018-02-22T08:42:34.848Z,99181.59
2018-02-22T08:45:03.119Z,99169.45
2018-02-22T08:47:31.443Z,99159.73
2018-02-22T08:49:59.712Z,99174.09
2018-02-22T08:52:27.992Z,99166.17
2018-02-22T08:54:56.287Z,99162.66
2018-02-22T08:57:24.549Z,99166.57
2018-02-22T08:59:52.842Z,99160.27
2018-02-22T09:02:21.116Z,99169.67
2018-02-22T09:04:49.416Z,99169.38
2018-02-22T09:07:18.316Z,99162.26
2018-02-22T09:09:46.620Z,99167.88
2018-02-22T09:12:14.883Z,99156.55
2018-02-22T09:14:43.182Z,99153.75
2018-02-22T09:17:11.486Z,99164.77
2018-02-22T09:19:39.757Z,99158.45
2018-02-22T09:22:08.061Z,99161.34
2018-02-22T09:24:36.323Z,99156.33
2018-02-22T09:27:04.941Z,99158.52
2018-02-22T09:29:33.232Z,99162.52
2018-02-22T09:32:01.516Z,99158.62
2018-02-22T09:34:30.092Z,99153.01
2018-02-22T09:36:58.394Z,99152.59
2018-02-22T09:39:26.694Z,99141.30
2018-02-22T09:41:55.019Z,99160.27
2018-02-22T09:44:23.279Z,99097.35
2018-02-22T09:46:51.573Z,99151.52
2018-02-22T09:49:19.860Z,99146.27
2018-02-22T09:51:48.186Z,99148.37
2018-02-22T09:54:16.495Z,99150.09
2018-02-22T09:56:44.756Z,99146.52
2018-02-22T09:59:13.057Z,99142.89
2018-02-22T10:01:41.332Z,99167.46
2018-02-22T10:04:09.661Z,99158.17
2018-02-22T10:06:37.928Z,99135.46
2018-02-22T10:09:06.213Z,99151.55
2018-02-22T10:11:34.501Z,99143.27
2018-02-22T10:14:03.111Z,99145.44
2018-02-22T10:16:31.370Z,99134.86
2018-02-22T10:18:59.698Z,99133.44
2018-02-22T10:21:27.984Z,99142.85
2018-02-22T10:23:56.284Z,99153.39
2018-02-22T10:26:24.591Z,99149.34
2018-02-22T10:28:52.877Z,99152.42
2018-02-22T10:31:21.181Z,99141.69
2018-02-22T10:33:49.541Z,99153.02
2018-02-22T10:36:17.785Z,99156.58
2018-02-22T10:38:46.118Z,99148.01
2018-02-22T10:41:14.400Z,99141.98
2018-02-22T10:43:42.681Z,99152.78
2018-02-22T10:46:10.941Z,99138.81
2018-02-22T10:48:39.217Z,99143.91
2018-02-22T10:51:07.463Z,99131.58
2018-02-22T10:53:35.776Z,99134.72
2018-02-22T10:56:04.100Z,99129.24
2018-02-22T10:58:32.335Z,99119.67
2018-02-22T11:01:06.537Z,99123.95
2018-02-22T11:03:34.790Z,99119.48
2018-02-22T11:06:03.090Z,99117.87
2018-02-22T11:08:31.683Z,99113.17
2018-02-22T11:11:00.001Z,99128.41
2018-02-22T11:13:28.385Z,99116.01
2018-02-22T11:15:56.695Z,99115.37
2018-02-22T11:18:24.956Z,99109.63
2018-02-22T11:20:53.296Z,99101.47
2018-02-22T11:23:21.632Z,99104.67
2018-02-22T11:25:49.895Z,99091.60
2018-02-22T11:28:18.225Z,99096.30
2018-02-22T11:30:46.492Z,99102.64
2018-02-22T11:33:14.799Z,99079.76
2018-02-22T11:35:43.124Z,99078.73
2018-02-22T11:38:11.411Z,99087.16
2018-02-22T11:40:39.716Z,99067.48
2018-02-22T11:43:08.059Z,99064.50
2018-02-22T11:45:36.317Z,99067.69
2018-02-22T11:48:05.003Z,99058.64
2018-02-22T11:50:33.303Z,99069.17
2018-02-22T11:53:01.571Z,99060.33
2018-02-22T11:55:29.866Z,99066.75
2018-02-22T11:57:58.127Z,99054.14
2018-02-22T12:00:26.436Z,99051.02
2018-02-22T12:02:54.723Z,99033.50
2018-02-22T12:05:23.087Z,99048.41
2018-02-22T12:07:51.360Z,99055.36
2018-02-22T12:10:19.821Z,99053.58
2018-02-22T12:12:48.116Z,99050.36
2018-02-22T12:15:16.528Z,99046.13
2018-02-22T12:17:44.820Z,99042.53
2018-02-22T12:20:13.088Z,99044.29
2018-02-22T12:22:41.399Z,99036.66
2018-02-22T12:25:09.742Z,99048.98
2018-02-22T12:27:37.972Z,99046.15
2018-02-22T12:30:06.244Z,99042.58
2018-02-22T12:32:34.822Z,99044.91
2018-02-22T12:35:03.695Z,99023.41
2018-02-22T12:37:31.966Z,99037.05
2018-02-22T12:40:00.373Z,99035.62
2018-02-22T12:42:28.712Z,99040.42
2018-02-22T12:44:56.988Z,99022.64
2018-02-22T12:47:25.253Z,99024.49
2018-02-22T12:49:53.535Z,99025.31
2018-02-22T12:52:21.798Z,99023.94
2018-02-22T12:54:50.115Z,99023.08
2018-02-22T12:57:18.404Z,99022.56
2018-02-22T12:59:46.700Z,99025.11
2018-02-22T13:02:15.039Z,99012.04
2018-02-22T13:04:43.601Z,99005.16
2018-02-22T13:07:11.906Z,99000.55
2018-02-22T13:09:40.250Z,99012.08
2018-02-22T13:12:08.984Z,99017.73
2018-02-22T13:14:37.309Z,99013.80
2018-02-22T13:17:05.763Z,99012.49
2018-02-22T13:19:34.064Z,98989.20
2018-02-22T13:22:02.484Z,98992.78
2018-02-22T13:24:30.823Z,99001.44
2018-02-22T13:26:59.107Z,99001.72
2018-02-22T13:29:27.483Z,98990.38
2018-02-22T13:31:55.720Z,98992.91
2018-02-22T13:34:38.452Z,98996.13
2018-02-22T13:37:18.319Z,98992.61
2018-02-22T13:39:46.628Z,98990.05
2018-02-22T13:42:14.900Z,98988.37
2018-02-22T13:44:54.857Z,98984.44
2018-02-22T13:47:23.184Z,98980.39
2018-02-22T13:50:03.157Z,98980.48
2018-02-22T13:52:31.484Z,98976.56
2018-02-22T13:54:59.804Z,98976.41
2018-02-22T13:57:28.093Z,98976.61
2018-02-22T13:59:56.564Z,98968.52
2018-02-22T14:02:26.618Z,98961.76
2018-02-22T14:04:54.889Z,98957.33
2018-02-22T14:07:23.207Z,98963.13
2018-02-22T14:09:51.721Z,98971.31
2018-02-22T14:12:20.032Z,98954.13
2018-02-22T14:14:48.300Z,98970.69
2018-02-22T14:17:16.600Z,98964.71
2018-02-22T14:19:44.864Z,98976.48
2018-02-22T14:22:13.199Z,98966.28
2018-02-22T14:24:41.488Z,98977.97
2018-02-22T14:27:09.852Z,98967.05
2018-02-22T14:29:38.116Z,98973.88
2018-02-22T14:32:06.720Z,98970.78
2018-02-22T14:34:35.025Z,99006.62
2018-02-22T14:37:04.021Z,98983.43
2018-02-22T14:39:32.423Z,98977.22
2018-02-22T14:42:00.717Z,98979.91
2018-02-22T14:44:29.015Z,98981.24
2018-02-22T14:46:57.288Z,98969.40
2018-02-22T14:49:25.754Z,98970.21
2018-02-22T14:51:54.035Z,98968.98
2018-02-22T14:54:22.291Z,98977.56
2018-02-22T14:56:50.641Z,98966.13
2018-02-22T14:59:18.892Z,98974.20
2018-02-22T15:01:47.544Z,98970.64
2018-02-22T15:04:15.823Z,98974.42
2018-02-22T15:06:44.679Z,98977.72
2018-02-22T15:09:12.947Z,98971.31
2018-02-22T15:11:42.205Z,98977.11
2018-02-22T15:14:10.495Z,98962.63
2018-02-22T15:16:38.768Z,98967.49
2018-02-22T15:19:07.053Z,98966.35
2018-02-22T15:21:35.346Z,98968.70
2018-02-22T15:24:04.344Z,98971.27
2018-02-22T15:26:32.631Z,98971.69
2018-02-22T15:29:00.965Z,98966.72
2018-02-22T15:31:29.270Z,98974.67
2018-02-22T15:33:57.584Z,98958.94
2018-02-22T15:36:25.935Z,98956.41
2018-02-22T15:38:54.210Z,98973.06
2018-02-22T15:41:22.491Z,98971.58
2018-02-22T15:43:50.897Z,98966.52
2018-02-22T15:46:19.246Z,98971.16
2018-02-22T15:48:47.504Z,98968.65
2018-02-22T15:51:16.432Z,98979.35
2018-02-22T15:53:44.710Z,98977.32
2018-02-22T15:56:13.022Z,98973.61
2018-02-22T15:58:41.308Z,98983.00
2018-02-22T16:01:09.630Z,98977.88
2018-02-22T16:03:37.940Z,98979.34
2018-02-22T16:06:06.976Z,98982.30
2018-02-22T16:08:35.284Z,98989.14
2018-02-22T16:11:04.242Z,98963.83
2018-02-22T16:13:32.545Z,98976.06
2018-02-22T16:16:00.793Z,98984.44
2018-02-22T16:18:29.107Z,98982.29
2018-02-22T16:20:57.434Z,98975.73
2018-02-22T16:23:25.708Z,98974.70
2018-02-22T16:25:54.006Z,98913.67
2018-02-22T16:28:22.364Z,98972.90
2018-02-22T16:30:50.639Z,98981.50
2018-02-22T16:33:18.926Z,98984.77
2018-02-22T16:35:47.242Z,98978.69
2018-02-22T16:38:15.998Z,98979.58
2018-02-22T16:40:44.304Z,98987.43
2018-02-22T16:43:12.916Z,98976.65
2018-02-22T16:45:41.245Z,98988.91
2018-02-22T16:48:09.536Z,98981.14
2018-02-22T16:50:37.841Z,98972.84
2018-02-22T16:53:06.088Z,98984.98
2018-02-22T16:55:34.734Z,98997.71
2018-02-22T16:58:03.018Z,98996.05
2018-02-22T17:00:31.322Z,98999.02
2018-02-22T17:02:59.615Z,99006.57
2018-02-22T17:05:27.909Z,99000.42
2018-02-22T17:07:56.172Z,99010.36
2018-02-22T17:10:25.118Z,98996.70
2018-02-22T17:12:53.531Z,99009.02
2018-02-22T17:15:21.839Z,99009.12
2018-02-22T17:17:50.096Z,99004.03
2018-02-22T17:20:18.363Z,99005.98
2018-02-22T17:22:46.661Z,99001.73
2018-02-22T17:25:15.216Z,99012.69
2018-02-22T17:27:49.066Z,99018.29
2018-02-22T17:30:22.961Z,99021.73
2018-02-22T17:32:51.250Z,99027.66
2018-02-22T17:38:34.037Z,99015.88
2018-02-22T17:41:13.153Z,99031.96
2018-02-22T17:43:41.432Z,99038.64
2018-02-22T17:46:09.708Z,99039.02
2018-02-22T17:48:38.049Z,99037.25
2018-02-22T17:51:06.307Z,99040.97
2018-02-22T17:53:34.678Z,99035.89
2018-02-22T17:56:02.898Z,99041.88
2018-02-22T17:58:31.199Z,99041.17
2018-02-22T18:00:59.461Z,99041.13
2018-02-22T18:03:27.731Z,99044.34
2018-02-22T18:05:56.016Z,99041.16
2018-02-22T18:08:24.310Z,99045.58
2018-02-22T18:10:52.599Z,99047.64
2018-02-22T18:13:20.923Z,99047.67
2018-02-22T18:15:49.224Z,99049.88
2018-02-22T18:18:17.493Z,99051.38
2018-02-22T18:20:45.793Z,99046.57
2018-02-22T18:23:14.220Z,99055.30
2018-02-22T18:25:42.528Z,99057.36
2018-02-22T18:28:10.801Z,99057.77
2018-02-22T18:30:39.650Z,99061.89
2018-02-22T18:33:07.962Z,99069.54
2018-02-22T18:35:36.258Z,99071.75
2018-02-22T18:38:04.739Z,99076.30
2018-02-22T18:40:38.518Z,99072.84
2018-02-22T18:43:12.457Z,99072.08
2018-02-22T18:45:40.721Z,99082.63
2018-02-22T18:48:09.036Z,99075.93
2018-02-22T18:50:37.356Z,99082.27
2018-02-22T18:53:05.623Z,99085.55
2018-02-22T18:55:33.881Z,99086.30
2018-02-22T18:58:02.161Z,99081.64
2018-02-22T19:00:30.448Z,99084.00
2018-02-22T19:02:58.725Z,99082.41
2018-02-22T19:05:27.025Z,99082.45
2018-02-22T19:07:55.332Z,99077.62
2018-02-22T19:10:23.648Z,99067.64
2018-02-22T19:12:51.904Z,99072.31
2018-02-22T19:15:20.201Z,99071.37
2018-02-22T19:17:48.490Z,99068.45
2018-02-22T19:20:16.781Z,99071.73
2018-02-22T19:22:45.068Z,99070.78
2018-02-22T19:25:13.424Z,99070.63
2018-02-22T19:27:41.697Z,99078.42
2018-02-22T19:30:10.264Z,99067.53
2018-02-22T19:32:38.580Z,99071.44
2018-02-22T19:35:06.851Z,99064.98
2018-02-22T19:37:35.987Z,99070.97
2018-02-22T19:40:04.254Z,99076.69
2018-02-22T19:42:32.550Z,99071.78
2018-02-22T19:45:00.813Z,99076.66
2018-02-22T19:47:29.092Z,99077.42
2018-02-22T19:49:57.399Z,99077.23
2018-02-22T19:52:25.668Z,99074.82
2018-02-22T19:54:53.966Z,99072.25
2018-02-22T19:57:22.261Z,99063.95
2018-02-22T19:59:50.544Z,99073.39
2018-02-22T20:02:18.807Z,99079.73
2018-02-22T20:04:47.319Z,99077.70
2018-02-22T20:07:15.619Z,99073.14
2018-02-22T20:09:43.879Z,99074.70
2018-02-22T20:12:12.162Z,99075.34
2018-02-22T20:14:40.442Z,99075.48
2018-02-22T20:17:08.790Z,99078.28
2018-02-22T20:19:37.048Z,99081.79
2018-02-22T20:22:05.356Z,99079.59
2018-02-22T20:24:33.643Z,99073.59
2018-02-22T20:27:03.088Z,99076.89
2018-02-22T20:29:31.371Z,99072.97
2018-02-22T20:31:59.666Z,99074.21
2018-02-22T20:34:27.953Z,99067.48
2018-02-22T20:36:56.242Z,99070.66
2018-02-22T20:39:24.544Z,99077.95
2018-02-22T20:41:52.831Z,99076.17
2018-02-22T20:44:21.115Z,99076.81
2018-02-22T20:46:49.519Z,99077.45
2018-02-22T20:49:17.797Z,99083.37
2018-02-22T20:51:49.065Z,99082.99
2018-02-22T20:54:17.345Z,99078.63
2018-02-22T20:56:45.683Z,99083.20
2018-02-22T20:59:13.976Z,99077.52
2018-02-22T21:01:42.261Z,99081.00
2018-02-22T21:04:11.753Z,99087.73
2018-02-22T21:06:40.577Z,99085.63
2018-02-22T21:09:08.902Z,99090.22
2018-02-22T21:11:37.284Z,99096.84
2018-02-22T21:14:05.565Z,99097.16
2018-02-22T21:16:33.894Z,99088.44
2018-02-22T21:19:02.198Z,99091.81
2018-02-22T21:21:30.526Z,99092.83
2018-02-22T21:23:58.787Z,99098.05
2018-02-22T21:26:27.096Z,99095.58
2018-02-22T21:28:55.388Z,99093.77
2018-02-22T21:31:23.648Z,99097.57
2018-02-22T21:33:51.944Z,99090.56
2018-02-22T21:36:20.205Z,99054.05
2018-02-22T21:38:48.511Z,99107.89
2018-02-22T21:41:16.815Z,99096.78
2018-02-22T21:43:45.183Z,99088.56
2018-02-22T21:46:13.488Z,99088.77
2018-02-22T21:48:41.759Z,99095.86
2018-02-22T21:51:10.043Z,99093.06
2018-02-22T21:53:38.314Z,99092.45
2018-02-22T21:56:06.636Z,99094.05
2018-02-22T21:58:34.878Z,99095.16
2018-02-22T22:01:03.166Z,99102.56
2018-02-22T22:03:31.444Z,99099.97
2018-02-22T22:05:59.805Z,99093.66
2018-02-22T22:08:28.085Z,99098.36
2018-02-22T22:10:56.366Z,99092.06
2018-02-22T22:13:24.625Z,99094.77
2018-02-22T22:15:52.916Z,99095.38
2018-02-22T22:18:21.184Z,99090.25
2018-02-22T22:20:49.496Z,99085.34
2018-02-22T22:23:17.855Z,99089.73
2018-02-22T22:25:46.167Z,99081.32
2018-02-22T22:28:14.494Z,99077.55
2018-02-22T22:30:42.776Z,99085.02
2018-02-22T22:33:11.068Z,99081.94
2018-02-22T22:35:39.320Z,99084.94
2018-02-22T22:38:07.680Z,99084.41
2018-02-22T22:40:35.932Z,99069.29
2018-02-22T22:43:04.920Z,99097.43
2018-02-22T22:45:33.258Z,99095.89
2018-02-22T22:48:01.534Z,99095.80
2018-02-22T22:50:29.786Z,99100.92
2018-02-22T22:52:58.076Z,99099.12
2018-02-22T22:55:26.368Z,99095.95
2018-02-22T22:57:54.647Z,99095.72
2018-02-22T23:00:22.921Z,99092.33
2018-02-22T23:02:51.171Z,99077.50
2018-02-22T23:05:19.467Z,99091.38
2018-02-22T23:07:47.727Z,99082.77
2018-02-22T23:10:16.031Z,99085.42
2018-02-22T23:12:44.267Z,99075.69
2018-02-22T23:15:12.584Z,99079.91
2018-02-22T23:17:40.849Z,99078.63
2018-02-22T23:20:09.103Z,99077.83
2018-02-22T23:22:37.380Z,99074.41
2018-02-22T23:25:05.641Z,99076.91
2018-02-22T23:27:33.931Z,99071.42
2018-02-22T23:30:02.207Z,99074.62
2018-02-22T23:32:30.511Z,99077.28
2018-02-22T23:34:58.827Z,99081.70
2018-02-22T23:37:27.111Z,99081.09
2018-02-22T23:39:55.375Z,99082.75
2018-02-22T23:42:24.475Z,99076.38
2018-02-22T23:44:52.763Z,99084.23
2018-02-22T23:47:21.856Z,99076.61
2018-02-22T23:49:50.136Z,99072.34
2018-02-22T23:52:18.463Z,99070.43
2018-02-22T23:54:46.728Z,99065.34
2018-02-22T23:57:14.990Z,99064.67
2018-02-22T23:59:43.296Z,99064.55
